Time;durP1;ratioP1;P1;durP2;ratioP2;P2;SDS_P1;SDS_P2;PMS_P1;PMS_P2;Temp;Humidity;BMP_temperature;BMP_pressure;BME280_temperature;BME280_humidity;BME280_pressure;Samples;Min_cycle;Max_cycle;Signal;HPM_P1;HPM_P2
2024/03/20 00:01:56;;;;;;;7.30;6.30;;;12.00;1.00;;;;;;5081482;28;20181;-42
2024/03/20 00:04:22;;;;;;;7.07;6.30;;;11.80;1.00;;;;;;5099256;28;20176;-41
2024/03/20 00:06:48;;;;;;;7.40;6.33;;;11.80;14.70;;;;;;5099473;28;20498;-40
2024/03/20 00:09:14;;;;;;;7.10;5.83;;;11.70;99.90;;;;;;5081781;28;20204;-40
2024/03/20 00:11:40;;;;;;;7.20;6.50;;;11.60;99.90;;;;;;5099741;28;20399;-40
2024/03/20 00:14:06;;;;;;;6.63;5.90;;;11.60;99.90;;;;;;5099396;28;20460;-40
2024/03/20 00:16:32;;;;;;;8.70;7.60;;;11.50;1.00;;;;;;5081928;28;20434;-41
2024/03/20 00:18:57;;;;;;;6.53;5.93;;;11.40;1.00;;;;;;5099457;28;20562;-41
2024/03/20 00:21:23;;;;;;;8.53;6.40;;;11.40;1.00;;;;;;5099686;28;20240;-41
2024/03/20 00:23:49;;;;;;;6.53;5.90;;;11.30;14.90;;;;;;5099592;28;20267;-40
2024/03/20 00:26:14;;;;;;;7.17;6.47;;;11.30;99.90;;;;;;5098825;28;20575;-41
2024/03/20 00:28:41;;;;;;;11.50;7.70;;;11.20;99.90;;;;;;5098927;28;20309;-40
2024/03/20 00:31:06;;;;;;;9.50;6.93;;;11.20;1.00;;;;;;5081249;28;20492;-39
2024/03/20 00:33:32;;;;;;;7.70;7.00;;;11.20;1.00;;;;;;5099366;28;20445;-42
2024/03/20 00:35:58;;;;;;;7.30;6.03;;;11.10;1.00;;;;;;5099050;28;20160;-39
2024/03/20 00:38:23;;;;;;;7.10;6.40;;;11.00;18.30;;;;;;5099408;28;20246;-40
2024/03/20 00:40:49;;;;;;;5.80;5.23;;;11.00;99.90;;;;;;5099371;28;20192;-39
2024/03/20 00:43:14;;;;;;;7.10;6.40;;;10.90;99.90;;;;;;5098944;28;20184;-40
2024/03/20 00:45:40;;;;;;;6.27;5.40;;;10.90;99.90;;;;;;5081018;28;20199;-40
2024/03/20 00:48:06;;;;;;;11.17;6.47;;;10.90;99.90;;;;;;5098442;28;20590;-41
2024/03/20 00:50:33;;;;;;;8.33;6.70;;;10.80;99.90;;;;;;5099001;28;20165;-40
2024/03/20 00:52:59;;;;;;;9.10;6.93;;;10.80;1.00;;;;;;5097538;28;20499;-40
2024/03/20 00:55:24;;;;;;;7.20;6.60;;;10.70;1.00;;;;;;5098856;28;20426;-39
2024/03/20 00:57:50;;;;;;;7.90;7.10;;;10.70;1.00;;;;;;5098672;28;20183;-41
2024/03/20 01:00:19;;;;;;;6.40;5.80;;;10.70;1.00;;;;;;5098838;28;20547;-39
2024/03/20 01:02:45;;;;;;;7.57;6.80;;;10.60;1.00;;;;;;5098962;28;20277;-40
2024/03/20 01:05:12;;;;;;;7.57;6.40;;;10.60;1.00;;;;;;5080631;28;20427;-41
2024/03/20 01:07:37;;;;;;;7.30;5.80;;;10.60;1.00;;;;;;5098238;28;20581;-41
2024/03/20 01:10:04;;;;;;;7.20;6.50;;;10.50;1.00;;;;;;5098083;28;20450;-39
2024/03/20 01:12:35;;;;;;;7.27;6.57;;;10.50;20.70;;;;;;5098628;28;20216;-44
2024/03/20 01:15:01;;;;;;;6.70;6.00;;;10.40;42.30;;;;;;5080416;28;20422;-41
2024/03/20 01:17:28;;;;;;;7.90;7.10;;;10.40;99.90;;;;;;5098156;28;20808;-40
2024/03/20 01:19:54;;;;;;;7.90;6.03;;;10.40;99.90;;;;;;5098235;28;20430;-41
2024/03/20 01:22:20;;;;;;;7.13;5.73;;;10.30;99.90;;;;;;5098479;28;20428;-41
2024/03/20 01:24:45;;;;;;;6.80;6.10;;;10.30;99.90;;;;;;5098017;28;20553;-40
2024/03/20 01:27:11;;;;;;;7.90;5.90;;;10.20;99.90;;;;;;5098423;28;20234;-43
2024/03/20 01:29:37;;;;;;;8.97;6.13;;;10.20;99.90;;;;;;5098253;28;20188;-40
2024/03/20 01:32:03;;;;;;;7.33;5.40;;;10.20;99.90;;;;;;5097988;28;20191;-40
2024/03/20 01:34:28;;;;;;;6.20;5.60;;;10.20;99.90;;;;;;5098025;28;20203;-41
2024/03/20 01:36:54;;;;;;;7.37;6.67;;;10.10;1.00;;;;;;5097847;28;20430;-40
2024/03/20 01:39:20;;;;;;;8.37;6.50;;;10.10;1.00;;;;;;5080743;28;20207;-41
2024/03/20 01:41:46;;;;;;;9.73;6.33;;;10.10;1.00;;;;;;5098082;28;20176;-40
2024/03/20 01:44:13;;;;;;;7.83;6.30;;;10.10;1.00;;;;;;5079550;28;20429;-40
2024/03/20 01:46:40;;;;;;;7.20;6.00;;;10.00;1.00;;;;;;5097510;28;20300;-41
2024/03/20 01:49:06;;;;;;;6.70;6.10;;;10.00;1.00;;;;;;5097437;28;20454;-41
2024/03/20 01:51:32;;;;;;;9.00;6.97;;;10.00;1.00;;;;;;5098312;28;20431;-40
2024/03/20 01:53:59;;;;;;;9.63;7.33;;;9.90;1.00;;;;;;5097630;28;20466;-40
2024/03/20 01:56:25;;;;;;;7.73;5.97;;;9.90;1.00;;;;;;5097630;28;20614;-40
2024/03/20 01:58:53;;;;;;;8.93;8.00;;;9.90;1.00;;;;;;5079854;28;20422;-41
2024/03/20 02:01:19;;;;;;;6.13;5.57;;;9.80;1.00;;;;;;5097854;28;20426;-41
2024/03/20 02:03:45;;;;;;;7.90;6.80;;;9.80;1.00;;;;;;5079082;28;20426;-40
2024/03/20 02:06:25;;;;;;;9.03;6.53;;;9.80;1.00;;;;;;5097171;28;20812;-41
2024/03/20 02:08:51;;;;;;;9.17;7.53;;;9.80;1.00;;;;;;5097417;28;20176;-41
2024/03/20 02:11:18;;;;;;;9.03;7.57;;;9.80;1.00;;;;;;5097452;28;20422;-40
2024/03/20 02:13:48;;;;;;;9.10;7.93;;;9.70;1.00;;;;;;5097778;28;20419;-42
2024/03/20 02:16:15;;;;;;;10.40;8.60;;;9.70;1.00;;;;;;5097301;28;20414;-41
2024/03/20 02:18:45;;;;;;;9.30;7.50;;;9.70;1.00;;;;;;5097326;28;20422;-39
2024/03/20 02:21:21;;;;;;;10.57;8.47;;;9.70;1.00;;;;;;5079839;28;20684;-39
2024/03/20 02:23:48;;;;;;;10.83;8.90;;;9.60;1.00;;;;;;5097257;28;20440;-40
2024/03/20 02:26:13;;;;;;;9.47;8.30;;;9.60;39.40;;;;;;5097865;28;20465;-41
2024/03/20 02:28:40;;;;;;;8.80;7.60;;;9.60;93.40;;;;;;5098625;28;20466;-41
2024/03/20 02:31:11;;;;;;;8.90;7.03;;;9.60;99.90;;;;;;5079866;28;20426;-40
2024/03/20 02:33:37;;;;;;;10.87;7.40;;;9.60;99.90;;;;;;5097471;28;20445;-40
2024/03/20 02:36:04;;;;;;;8.03;6.77;;;9.50;99.90;;;;;;5079518;28;20464;-40
2024/03/20 02:38:32;;;;;;;9.53;7.83;;;9.50;99.90;;;;;;5079447;28;20406;-41
2024/03/20 02:40:57;;;;;;;8.93;7.07;;;9.50;99.90;;;;;;5096710;28;20423;-40
2024/03/20 02:43:23;;;;;;;7.27;6.57;;;9.50;99.90;;;;;;5096910;28;20423;-40
2024/03/20 02:45:49;;;;;;;7.30;6.60;;;9.50;99.90;;;;;;5097738;28;20210;-41
2024/03/20 02:48:15;;;;;;;7.40;6.50;;;9.40;99.90;;;;;;5096950;28;20584;-40
2024/03/20 02:50:41;;;;;;;9.70;6.83;;;9.40;99.90;;;;;;5079737;28;20280;-39
2024/03/20 02:53:07;;;;;;;7.80;6.50;;;9.40;99.90;;;;;;5097457;28;20498;-41
2024/03/20 02:55:37;;;;;;;6.90;6.20;;;9.40;99.90;;;;;;5079099;28;20427;-40
2024/03/20 02:58:03;;;;;;;7.27;6.37;;;9.40;99.90;;;;;;5080091;28;20549;-42
2024/03/20 03:00:29;;;;;;;7.23;6.53;;;9.40;99.90;;;;;;5097002;28;20832;-40
2024/03/20 03:02:56;;;;;;;6.90;6.30;;;9.30;99.90;;;;;;5097040;28;20554;-41
2024/03/20 03:05:22;;;;;;;8.23;6.13;;;9.30;99.90;;;;;;5078656;28;20415;-41
2024/03/20 03:07:48;;;;;;;6.67;6.07;;;9.30;99.90;;;;;;5096764;28;20552;-41
2024/03/20 03:10:15;;;;;;;5.83;5.30;;;9.30;99.90;;;;;;5096745;28;20541;-41
2024/03/20 03:12:44;;;;;;;6.60;5.80;;;9.20;99.90;;;;;;5097326;28;20173;-43
2024/03/20 03:15:10;;;;;;;13.50;6.33;;;9.20;99.90;;;;;;5078954;28;20421;-41
2024/03/20 03:17:40;;;;;;;6.73;6.03;;;9.20;99.90;;;;;;5099905;28;20415;-40
2024/03/20 03:20:13;;;;;;;7.17;6.40;;;9.20;99.90;;;;;;5100336;28;20471;-40
2024/03/20 03:22:39;;;;;;;6.17;5.57;;;9.20;99.90;;;;;;5084047;28;20496;-41
2024/03/20 03:25:05;;;;;;;7.03;6.33;;;9.20;99.90;;;;;;5082200;28;20434;-40
2024/03/20 03:27:31;;;;;;;7.10;5.27;;;9.10;99.90;;;;;;5100269;28;20227;-41
2024/03/20 03:29:57;;;;;;;6.30;5.70;;;9.10;99.90;;;;;;5100338;28;20406;-41
2024/03/20 03:32:22;;;;;;;6.10;5.60;;;9.10;99.90;;;;;;5100079;28;20262;-43
2024/03/20 03:34:48;;;;;;;6.73;5.80;;;9.00;99.90;;;;;;5082390;28;20221;-41
2024/03/20 03:37:14;;;;;;;5.80;5.17;;;9.00;99.90;;;;;;5100208;28;20554;-41
2024/03/20 03:39:39;;;;;;;9.03;5.93;;;9.00;99.90;;;;;;5100321;28;20195;-41
2024/03/20 03:42:05;;;;;;;7.07;6.30;;;9.00;99.90;;;;;;5099631;28;20261;-41
2024/03/20 03:44:31;;;;;;;6.33;5.73;;;9.00;1.00;;;;;;5099292;28;20195;-40
2024/03/20 03:47:37;;;;;;;7.57;6.33;;;9.00;1.00;;;;;;5099923;28;20506;-40
2024/03/20 03:50:03;;;;;;;7.70;6.13;;;9.00;1.00;;;;;;5099875;28;20180;-41
2024/03/20 03:52:30;;;;;;;6.00;5.40;;;9.00;1.00;;;;;;5079040;28;20750;-41
2024/03/20 03:54:56;;;;;;;6.63;6.00;;;9.00;1.00;;;;;;5079852;28;20508;-42
2024/03/20 03:57:21;;;;;;;7.03;6.33;;;8.90;1.00;;;;;;5079729;28;20825;-41
2024/03/20 03:59:47;;;;;;;6.83;6.20;;;8.90;1.00;;;;;;5080348;28;20181;-41
2024/03/20 04:02:13;;;;;;;7.20;6.40;;;8.90;1.00;;;;;;5078734;28;20561;-41
2024/03/20 04:04:39;;;;;;;7.43;6.50;;;8.90;1.00;;;;;;5079854;28;20211;-41
2024/03/20 04:07:04;;;;;;;6.93;5.87;;;8.90;1.00;;;;;;5078310;28;20205;-43
2024/03/20 04:09:30;;;;;;;10.23;6.77;;;8.80;1.00;;;;;;5078062;28;20411;-40
2024/03/20 04:11:55;;;;;;;7.67;6.20;;;8.80;1.00;;;;;;5078672;28;20177;-41
2024/03/20 04:14:21;;;;;;;7.20;6.47;;;8.80;1.00;;;;;;5078978;28;20211;-40
2024/03/20 04:16:47;;;;;;;7.20;6.30;;;8.80;1.00;;;;;;5078999;28;20210;-40
2024/03/20 04:19:12;;;;;;;6.90;6.20;;;8.80;1.00;;;;;;5078473;28;20288;-40
2024/03/20 04:21:38;;;;;;;9.60;6.07;;;8.80;1.00;;;;;;5079176;28;20180;-39
2024/03/20 04:24:04;;;;;;;6.87;6.00;;;8.80;1.00;;;;;;5078383;28;20417;-40
2024/03/20 04:26:30;;;;;;;5.87;5.23;;;8.80;1.00;;;;;;5079282;28;20189;-40
2024/03/20 04:28:55;;;;;;;6.40;5.80;;;8.80;1.00;;;;;;5078814;28;20250;-40
2024/03/20 04:31:21;;;;;;;7.17;5.50;;;8.70;1.00;;;;;;5079026;28;20189;-41
2024/03/20 04:33:47;;;;;;;7.17;6.10;;;8.70;1.00;;;;;;5079667;28;20188;-40
2024/03/20 04:36:12;;;;;;;7.20;6.50;;;8.70;1.00;;;;;;5077302;28;20189;-40
2024/03/20 04:38:39;;;;;;;5.63;5.13;;;8.70;1.00;;;;;;5077590;28;20185;-41
2024/03/20 04:41:05;;;;;;;7.70;7.00;;;8.70;1.00;;;;;;5076387;28;20427;-40
2024/03/20 04:43:31;;;;;;;8.17;6.00;;;8.70;1.00;;;;;;5077054;28;20821;-41
2024/03/20 04:45:57;;;;;;;6.97;6.37;;;8.70;1.00;;;;;;5075838;28;20412;-41
2024/03/20 04:48:23;;;;;;;6.20;5.60;;;8.70;14.70;;;;;;5075437;28;20495;-41
2024/03/20 04:50:48;;;;;;;8.23;6.43;;;8.70;35.30;;;;;;5076890;28;20274;-40
2024/03/20 04:53:14;;;;;;;6.90;6.10;;;8.60;85.30;;;;;;5087412;28;20244;-41
2024/03/20 04:55:40;;;;;;;7.93;6.67;;;8.70;99.90;;;;;;5097503;28;20189;-41
2024/03/20 04:58:05;;;;;;;5.87;5.27;;;8.70;98.40;;;;;;5097011;28;20173;-42
2024/03/20 05:00:31;;;;;;;7.13;6.43;;;8.60;95.80;;;;;;5097890;28;20229;-41
2024/03/20 05:02:57;;;;;;;6.60;5.90;;;8.60;67.20;;;;;;5098267;28;20199;-40
2024/03/20 05:05:23;;;;;;;6.27;5.67;;;8.60;45.60;;;;;;5080147;28;20448;-41
2024/03/20 05:07:48;;;;;;;7.37;6.67;;;8.60;31.80;;;;;;5097834;28;20215;-40
2024/03/20 05:10:16;;;;;;;6.80;5.87;;;8.60;26.70;;;;;;5097788;28;20180;-40
2024/03/20 05:12:42;;;;;;;6.57;5.97;;;8.50;25.50;;;;;;5080726;28;20169;-40
2024/03/20 05:15:08;;;;;;;6.73;6.13;;;8.50;29.40;;;;;;5097690;28;20468;-42
2024/03/20 05:17:33;;;;;;;7.90;6.63;;;8.50;42.70;;;;;;5095474;28;20434;-40
2024/03/20 05:19:59;;;;;;;7.10;6.50;;;8.50;57.70;;;;;;5077113;28;20828;-42
2024/03/20 05:22:25;;;;;;;6.70;6.00;;;8.50;87.70;;;;;;5078262;28;20180;-40
2024/03/20 05:24:51;;;;;;;7.20;6.20;;;8.50;99.90;;;;;;5096268;28;20218;-40
2024/03/20 05:27:17;;;;;;;6.80;6.13;;;8.50;99.90;;;;;;5095905;28;20220;-40
2024/03/20 05:29:43;;;;;;;7.00;6.40;;;8.50;99.90;;;;;;5096034;28;20425;-41
2024/03/20 05:32:09;;;;;;;6.73;5.93;;;8.50;99.90;;;;;;5097642;28;20422;-40
2024/03/20 05:34:34;;;;;;;7.33;6.60;;;8.50;99.90;;;;;;5097952;28;20192;-40
2024/03/20 05:37:00;;;;;;;6.00;5.50;;;8.50;99.90;;;;;;5097947;28;20191;-40
2024/03/20 05:39:25;;;;;;;6.97;6.37;;;8.50;96.50;;;;;;5094713;28;20183;-40
2024/03/20 05:41:52;;;;;;;5.70;5.20;;;8.50;93.80;;;;;;5077750;28;20184;-41
2024/03/20 05:44:22;;;;;;;6.73;5.87;;;8.50;99.90;;;;;;5095785;28;20472;-40
2024/03/20 05:46:51;;;;;;;7.03;5.90;;;8.50;99.90;;;;;;5096731;28;20501;-41
2024/03/20 05:49:20;;;;;;;6.20;5.60;;;8.50;99.90;;;;;;5096024;28;20472;-40
2024/03/20 05:51:49;;;;;;;6.93;6.23;;;8.50;99.90;;;;;;5077266;28;20432;-40
2024/03/20 05:54:18;;;;;;;6.67;5.90;;;8.60;99.90;;;;;;5094413;28;20485;-40
2024/03/20 05:56:44;;;;;;;5.73;5.23;;;8.60;99.90;;;;;;5094140;28;20705;-41
2024/03/20 05:59:12;;;;;;;5.90;5.30;;;8.60;99.90;;;;;;5094707;28;20446;-40
2024/03/20 06:01:37;;;;;;;6.20;5.60;;;8.70;99.90;;;;;;5094381;28;20469;-41
2024/03/20 06:04:04;;;;;;;6.17;5.67;;;8.70;94.80;;;;;;5094367;28;20467;-41
2024/03/20 06:06:31;;;;;;;7.03;5.73;;;8.70;47.70;;;;;;5094257;28;20403;-41
2024/03/20 06:08:57;;;;;;;7.23;6.53;;;8.80;26.60;;;;;;5093516;28;20418;-41
2024/03/20 06:11:22;;;;;;;6.80;6.07;;;8.90;26.60;;;;;;5094781;28;20433;-42
2024/03/20 06:13:53;;;;;;;6.50;5.90;;;8.90;16.20;;;;;;5093446;28;20180;-40
2024/03/20 06:16:19;;;;;;;6.50;5.53;;;9.10;9.80;;;;;;5093027;28;20176;-40
2024/03/20 06:18:45;;;;;;;6.83;6.23;;;9.20;7.20;;;;;;5093392;28;20407;-40
2024/03/20 06:21:10;;;;;;;6.20;5.60;;;9.50;1.00;;;;;;5075221;28;20475;-41
2024/03/20 06:23:36;;;;;;;8.00;7.30;;;9.60;1.00;;;;;;5094610;28;20184;-41
2024/03/20 06:26:02;;;;;;;7.37;6.67;;;10.00;1.00;;;;;;5094321;28;20249;-40
2024/03/20 06:28:28;;;;;;;7.17;6.47;;;10.30;99.90;;;;;;5077322;28;20656;-42
2024/03/20 06:30:54;;;;;;;7.70;7.00;;;10.50;99.90;;;;;;5094130;28;20486;-40
2024/03/20 06:33:20;;;;;;;8.70;7.07;;;10.90;1.00;;;;;;5093336;28;20214;-40
2024/03/20 06:35:50;;;;;;;7.67;6.70;;;11.30;99.90;;;;;;5092916;28;20680;-42
2024/03/20 06:38:17;;;;;;;6.57;5.90;;;11.70;99.90;;;;;;5058121;28;20501;-41
2024/03/20 06:40:44;;;;;;;7.33;6.60;;;12.10;1.00;;;;;;5075744;28;20434;-41
2024/03/20 06:43:11;;;;;;;10.03;7.03;;;12.40;1.00;;;;;;5093227;28;20429;-40
2024/03/20 06:45:41;;;;;;;8.33;6.50;;;12.70;99.90;;;;;;5076631;28;20406;-44
2024/03/20 06:48:08;;;;;;;8.03;7.23;;;12.70;1.00;;;;;;5094086;28;20793;-40
2024/03/20 06:50:34;;;;;;;6.90;6.20;;;12.70;1.00;;;;;;5091418;28;20533;-40
2024/03/20 06:53:00;;;;;;;6.57;6.03;;;12.70;1.00;;;;;;5093118;28;20513;-40
2024/03/20 06:55:27;;;;;;;7.03;6.43;;;12.70;1.00;;;;;;5092777;28;20864;-39
2024/03/20 06:57:53;;;;;;;6.80;6.20;;;12.70;1.00;;;;;;5077070;28;20169;-39
2024/03/20 07:00:19;;;;;;;7.07;6.50;;;12.80;1.00;;;;;;5077108;28;20438;-41
2024/03/20 07:02:45;;;;;;;8.80;6.70;;;12.80;1.00;;;;;;5075336;28;20434;-39
2024/03/20 07:05:14;;;;;;;7.30;6.60;;;13.00;1.00;;;;;;5074771;28;20434;-40
2024/03/20 07:07:41;;;;;;;7.83;7.03;;;13.10;1.00;;;;;;5075276;28;20470;-40
2024/03/20 07:10:07;;;;;;;8.30;7.30;;;13.20;1.00;;;;;;5077413;28;20407;-40
2024/03/20 07:12:34;;;;;;;7.93;7.17;;;13.40;1.00;;;;;;5060524;28;20416;-41
2024/03/20 07:15:00;;;;;;;8.53;7.63;;;13.40;1.00;;;;;;5079054;28;20525;-40
2024/03/20 07:17:26;;;;;;;7.70;7.00;;;13.50;1.00;;;;;;5077084;28;20431;-41
2024/03/20 07:19:54;;;;;;;9.37;8.10;;;13.70;99.90;;;;;;5077600;28;20423;-42
2024/03/20 07:22:20;;;;;;;8.20;7.50;;;13.80;99.90;;;;;;5076283;28;20203;-39
2024/03/20 07:24:46;;;;;;;8.63;7.73;;;14.10;99.90;;;;;;5061120;28;20412;-40
2024/03/20 07:27:11;;;;;;;7.67;6.87;;;14.30;99.90;;;;;;5077866;28;20524;-40
2024/03/20 07:29:37;;;;;;;8.43;7.63;;;14.50;81.70;;;;;;5078462;28;20177;-40
2024/03/20 07:32:07;;;;;;;9.20;8.30;;;14.80;1.00;;;;;;5076764;28;20181;-41
2024/03/20 07:34:33;;;;;;;7.27;6.67;;;15.00;1.00;;;;;;5076420;28;20348;-40
2024/03/20 07:36:59;;;;;;;8.60;6.53;;;15.30;1.00;;;;;;5041387;28;20419;-42
2024/03/20 07:39:32;;;;;;;8.63;6.67;;;15.60;1.00;;;;;;5077411;28;20411;-40
2024/03/20 07:41:58;;;;;;;7.83;7.03;;;15.90;1.00;;;;;;5076066;28;20402;-41
2024/03/20 07:44:24;;;;;;;8.03;6.93;;;16.20;99.90;;;;;;5077636;28;20452;-41
2024/03/20 07:46:49;;;;;;;8.60;6.80;;;16.50;99.90;;;;;;5077288;28;20466;-42
2024/03/20 07:49:15;;;;;;;7.33;6.63;;;16.80;99.90;;;;;;5060208;28;20467;-42
2024/03/20 07:51:41;;;;;;;6.97;6.30;;;17.00;99.90;;;;;;5059456;28;20524;-42
2024/03/20 07:54:06;;;;;;;7.00;6.17;;;17.20;99.90;;;;;;5077374;28;20256;-40
2024/03/20 07:56:32;;;;;;;7.07;6.40;;;17.50;99.90;;;;;;5075194;28;20169;-41
2024/03/20 07:58:58;;;;;;;6.30;5.70;;;17.70;99.90;;;;;;5076988;28;20181;-41
2024/03/20 08:01:23;;;;;;;6.73;6.13;;;18.00;99.90;;;;;;5078469;28;20273;-41
2024/03/20 08:03:50;;;;;;;7.73;6.00;;;18.30;91.30;;;;;;5078173;28;20176;-43
2024/03/20 08:06:16;;;;;;;6.50;5.77;;;18.60;50.90;;;;;;5077349;28;20173;-41
2024/03/20 08:08:43;;;;;;;8.50;5.90;;;18.80;30.40;;;;;;5075712;28;20475;-39
2024/03/20 08:11:09;;;;;;;6.23;5.63;;;19.00;12.80;;;;;;5076829;28;20215;-40
2024/03/20 08:13:35;;;;;;;6.60;6.10;;;19.20;1.00;;;;;;5077389;28;20439;-41
2024/03/20 08:16:00;;;;;;;7.00;5.27;;;19.40;1.00;;;;;;5077846;28;20173;-39
2024/03/20 08:18:30;;;;;;;5.40;4.90;;;19.70;1.00;;;;;;5077348;28;20460;-42
2024/03/20 08:20:55;;;;;;;5.10;4.60;;;19.90;1.00;;;;;;5077056;28;20177;-41
2024/03/20 08:23:21;;;;;;;4.97;4.47;;;20.30;1.00;;;;;;5058756;28;20438;-40
2024/03/20 08:25:48;;;;;;;4.27;3.87;;;20.60;1.00;;;;;;5077478;28;20173;-40
2024/03/20 08:28:13;;;;;;;3.73;3.43;;;20.90;1.00;;;;;;5058008;28;20217;-41
2024/03/20 08:30:39;;;;;;;4.20;3.80;;;21.30;1.00;;;;;;5075600;28;20851;-41
2024/03/20 08:33:05;;;;;;;4.60;3.43;;;21.70;1.00;;;;;;5059186;28;20196;-42
2024/03/20 08:35:31;;;;;;;3.93;3.50;;;22.10;1.00;;;;;;5077629;28;20523;-40
2024/03/20 08:37:56;;;;;;;4.67;3.67;;;22.40;1.00;;;;;;5076224;28;20336;-41
2024/03/20 08:40:22;;;;;;;3.60;3.20;;;22.70;1.00;;;;;;5076780;28;20336;-43
2024/03/20 08:42:48;;;;;;;4.80;3.53;;;22.90;1.00;;;;;;5076254;28;20196;-40
2024/03/20 08:45:13;;;;;;;4.10;3.47;;;23.20;1.00;;;;;;5043617;28;20195;-42
2024/03/20 08:47:42;;;;;;;4.30;3.53;;;23.50;1.00;;;;;;5075864;28;20452;-53
2024/03/20 08:50:09;;;;;;;3.50;3.20;;;23.70;1.00;;;;;;5075597;28;20177;-41
2024/03/20 08:52:35;;;;;;;5.10;3.17;;;24.00;1.00;;;;;;5075882;28;20537;-42
2024/03/20 08:55:02;;;;;;;4.20;3.80;;;24.30;1.00;;;;;;5074507;28;20821;-44
2024/03/20 08:57:27;;;;;;;3.40;3.10;;;24.50;1.00;;;;;;5056103;28;20390;-42
2024/03/20 08:59:53;;;;;;;3.50;3.20;;;24.80;1.00;;;;;;5041616;28;20508;-43
2024/03/20 09:02:19;;;;;;;3.00;2.80;;;24.90;1.00;;;;;;5076213;28;20185;-41
2024/03/20 09:04:44;;;;;;;3.33;3.00;;;25.10;1.00;;;;;;5076727;28;20280;-41
2024/03/20 09:07:10;;;;;;;2.90;2.47;;;25.10;1.00;;;;;;5058768;28;20512;-44
2024/03/20 09:09:36;;;;;;;2.47;2.27;;;25.10;1.00;;;;;;5059613;28;20165;-43
2024/03/20 09:12:04;;;;;;;3.17;2.87;;;25.20;1.00;;;;;;5076539;28;20523;-42
2024/03/20 09:14:32;;;;;;;2.37;2.17;;;25.30;1.00;;;;;;5057028;28;20427;-40
2024/03/20 09:16:58;;;;;;;4.80;2.80;;;25.50;1.00;;;;;;5076660;28;20426;-42
2024/03/20 09:19:24;;;;;;;2.90;2.67;;;25.80;1.00;;;;;;5077233;28;20442;-44
2024/03/20 09:21:50;;;;;;;2.20;1.93;;;26.10;1.00;;;;;;5077072;28;20199;-41
2024/03/20 09:24:22;;;;;;;2.70;2.23;;;26.40;1.00;;;;;;5076135;28;20439;-41
2024/03/20 09:26:49;;;;;;;3.57;2.33;;;26.70;1.00;;;;;;5074823;28;20192;-41
2024/03/20 09:29:15;;;;;;;3.50;2.20;;;27.10;1.00;;;;;;5075941;28;20854;-41
2024/03/20 09:31:40;;;;;;;2.43;2.23;;;27.40;1.00;;;;;;5075859;28;20402;-40
2024/03/20 09:34:06;;;;;;;3.23;2.47;;;27.70;1.00;;;;;;5076188;28;20788;-42
2024/03/20 09:36:32;;;;;;;2.57;2.07;;;28.00;1.00;;;;;;5077162;28;20173;-42
2024/03/20 09:38:58;;;;;;;2.37;2.17;;;28.30;1.00;;;;;;5059551;28;20208;-41
2024/03/20 09:41:24;;;;;;;2.37;2.17;;;28.50;1.00;;;;;;5058505;28;20677;-41
2024/03/20 09:43:54;;;;;;;2.00;1.80;;;28.80;1.00;;;;;;5076158;28;20401;-42
2024/03/20 09:46:21;;;;;;;3.23;2.27;;;29.10;1.00;;;;;;5074655;28;20417;-46
2024/03/20 09:48:50;;;;;;;2.00;1.80;;;29.50;1.00;;;;;;5074976;28;20470;-41
2024/03/20 09:51:18;;;;;;;2.50;2.00;;;29.90;1.00;;;;;;5076134;28;20537;-41
2024/03/20 09:53:48;;;;;;;2.63;2.33;;;30.10;1.00;;;;;;5059253;28;20471;-42
2024/03/20 09:56:20;;;;;;;2.37;1.73;;;30.40;1.00;;;;;;5058506;28;20500;-41
2024/03/20 09:58:46;;;;;;;2.77;2.13;;;30.60;1.00;;;;;;5058370;28;20518;-41
2024/03/20 10:01:15;;;;;;;2.80;1.83;;;30.80;1.00;;;;;;5075719;28;20418;-41
2024/03/20 10:03:44;;;;;;;2.60;1.70;;;31.00;1.00;;;;;;5094881;28;20419;-42
2024/03/20 10:06:11;;;;;;;2.70;2.50;;;31.20;1.00;;;;;;5096610;28;20492;-42
2024/03/20 10:08:38;;;;;;;1.90;1.70;;;31.30;1.00;;;;;;5096450;28;20761;-41
2024/03/20 10:11:08;;;;;;;2.20;1.70;;;31.50;1.00;;;;;;5095105;28;20813;-44
2024/03/20 10:13:34;;;;;;;1.90;1.40;;;31.50;1.00;;;;;;5081529;28;20915;-43
2024/03/20 10:16:18;;;;;;;1.97;1.43;;;31.50;1.00;;;;;;5075861;28;20411;-42
2024/03/20 10:18:44;;;;;;;1.97;1.77;;;31.60;1.00;;;;;;5058012;28;20397;-42
2024/03/20 10:21:10;;;;;;;1.60;1.50;;;31.80;1.00;;;;;;5075429;28;20423;-40
2024/03/20 10:23:46;;;;;;;1.83;1.63;;;32.00;1.00;;;;;;5076506;28;20760;-41
2024/03/20 10:26:14;;;;;;;2.17;1.60;;;32.20;1.00;;;;;;5079315;28;20997;-43
2024/03/20 10:28:40;;;;;;;2.47;1.40;;;32.40;1.00;;;;;;5081046;28;20474;-44
2024/03/20 10:31:11;;;;;;;1.93;1.40;;;32.60;1.00;;;;;;5080294;28;20393;-41
2024/03/20 10:33:38;;;;;;;2.00;1.50;;;32.70;1.00;;;;;;5079355;28;20410;-42
2024/03/20 10:36:05;;;;;;;1.70;1.30;;;33.00;1.00;;;;;;5080841;28;20430;-41
2024/03/20 10:38:32;;;;;;;1.80;1.50;;;33.20;1.00;;;;;;5079624;28;20435;-41
2024/03/20 10:40:59;;;;;;;1.40;1.07;;;33.40;1.00;;;;;;5079153;28;20406;-42
2024/03/20 10:43:26;;;;;;;1.93;1.17;;;33.60;1.00;;;;;;5076858;28;20442;-42
2024/03/20 10:45:53;;;;;;;1.30;1.10;;;33.70;1.00;;;;;;5080145;28;20434;-44
2024/03/20 10:48:20;;;;;;;2.50;1.30;;;34.00;1.00;;;;;;5079344;28;20463;-44
2024/03/20 10:50:51;;;;;;;1.60;1.13;;;34.10;1.00;;;;;;5078382;28;20500;-43
2024/03/20 10:53:18;;;;;;;2.23;1.00;;;34.10;1.00;;;;;;5077971;28;20480;-42
2024/03/20 10:55:44;;;;;;;4.83;1.20;;;34.10;1.00;;;;;;5117453;28;20815;-44
2024/03/20 10:58:14;;;;;;;1.53;1.00;;;34.20;1.00;;;;;;5100237;28;20414;-43
2024/03/20 11:00:42;;;;;;;1.50;0.93;;;34.30;1.00;;;;;;5117969;28;20416;-43
2024/03/20 11:03:43;;;;;;;2.07;1.20;;;34.40;1.00;;;;;;5119672;28;20425;-43
2024/03/20 11:06:38;;;;;;;1.97;1.00;;;34.60;1.00;;;;;;5102194;28;20531;-44
2024/03/20 11:09:07;;;;;;;1.47;1.10;;;34.70;1.00;;;;;;5120671;28;20536;-44
2024/03/20 11:11:33;;;;;;;1.57;1.13;;;34.90;1.00;;;;;;5119436;28;20413;-43
2024/03/20 11:14:06;;;;;;;1.50;1.00;;;35.00;1.00;;;;;;5120922;28;20811;-44
2024/03/20 11:16:33;;;;;;;1.50;1.10;;;35.00;1.00;;;;;;5102981;28;20447;-44
2024/03/20 11:19:05;;;;;;;1.60;1.20;;;34.90;1.00;;;;;;5102347;28;20410;-46
2024/03/20 11:21:31;;;;;;;1.50;1.40;;;34.90;1.00;;;;;;5119243;28;20449;-43
2024/03/20 11:23:57;;;;;;;2.50;1.17;;;34.80;1.00;;;;;;5085849;28;20437;-43
2024/03/20 11:26:23;;;;;;;1.93;1.17;;;34.70;1.00;;;;;;5102316;28;20436;-44
2024/03/20 11:28:49;;;;;;;1.33;1.23;;;34.50;1.00;;;;;;5120458;28;20571;-42
2024/03/20 11:31:15;;;;;;;1.20;1.00;;;34.30;1.00;;;;;;5084227;28;20931;-44
2024/03/20 11:33:42;;;;;;;1.43;1.20;;;34.20;1.00;;;;;;5120216;28;20179;-43
2024/03/20 11:36:18;;;;;;;1.80;1.13;;;34.00;1.00;;;;;;5119263;28;20454;-43
2024/03/20 11:38:44;;;;;;;1.47;1.20;;;34.00;1.00;;;;;;5100637;28;20425;-44
2024/03/20 11:41:10;;;;;;;2.27;1.17;;;33.90;1.00;;;;;;5118723;28;20429;-44
2024/03/20 11:43:42;;;;;;;3.17;1.40;;;33.60;1.00;;;;;;5118526;28;20728;-44
2024/03/20 11:46:11;;;;;;;3.50;1.30;;;33.70;1.00;;;;;;5098703;28;20457;-46
2024/03/20 11:48:38;;;;;;;3.63;1.37;;;33.60;1.00;;;;;;5099215;28;20521;-45
2024/03/20 11:51:08;;;;;;;7.50;1.60;;;33.70;1.00;;;;;;5100975;28;20430;-47
2024/03/20 11:53:34;;;;;;;1.97;1.17;;;33.80;1.00;;;;;;5118528;28;20466;-44
2024/03/20 11:56:00;;;;;;;5.17;1.70;;;34.20;1.00;;;;;;5100785;28;20433;-44
2024/03/20 11:58:26;;;;;;;6.50;1.40;;;34.50;1.00;;;;;;5100310;28;20469;-43
2024/03/20 12:00:51;;;;;;;4.33;1.40;;;34.70;1.00;;;;;;5117321;28;20420;-43
2024/03/20 12:03:22;;;;;;;14.60;2.37;;;34.80;1.00;;;;;;5116898;28;20677;-43
2024/03/20 12:05:48;;;;;;;13.80;2.20;;;34.80;1.00;;;;;;5117303;28;20180;-42
2024/03/20 12:08:19;;;;;;;3.63;1.53;;;34.90;1.00;;;;;;5116351;28;20720;-43
2024/03/20 12:10:45;;;;;;;9.03;1.87;;;35.00;1.00;;;;;;5098641;28;20425;-43
2024/03/20 12:13:12;;;;;;;7.23;2.07;;;35.30;1.00;;;;;;5115744;28;20680;-42
2024/03/20 12:15:42;;;;;;;11.10;2.23;;;35.50;1.00;;;;;;5117125;28;20406;-45
2024/03/20 12:18:08;;;;;;;6.40;1.67;;;35.80;1.00;;;;;;5115153;28;20425;-43
2024/03/20 12:20:34;;;;;;;10.53;2.20;;;36.00;1.00;;;;;;5116885;28;20712;-42
2024/03/20 12:23:06;;;;;;;4.03;2.33;;;36.10;1.00;;;;;;5116206;28;20536;-42
2024/03/20 12:25:31;;;;;;;5.23;1.80;;;36.10;1.00;;;;;;5098471;28;20184;-45
2024/03/20 12:27:57;;;;;;;9.30;1.67;;;36.00;1.00;;;;;;5117599;28;20457;-42
2024/03/20 12:30:24;;;;;;;3.90;1.70;;;36.00;1.00;;;;;;5117438;28;20164;-45
2024/03/20 12:32:50;;;;;;;4.97;1.73;;;36.00;1.00;;;;;;5117055;28;20518;-43
2024/03/20 12:35:16;;;;;;;2.40;1.43;;;36.10;1.00;;;;;;5117176;28;20425;-45
2024/03/20 12:37:43;;;;;;;4.57;1.50;;;36.20;1.00;;;;;;5116498;28;20293;-43
2024/03/20 12:40:12;;;;;;;2.67;1.60;;;36.00;1.00;;;;;;5118062;28;20734;-41
2024/03/20 12:42:38;;;;;;;2.77;1.50;;;36.20;1.00;;;;;;5117566;28;20509;-43
2024/03/20 12:45:06;;;;;;;3.93;1.27;;;36.20;1.00;;;;;;5118837;28;20426;-44
2024/03/20 12:47:32;;;;;;;6.73;1.43;;;36.10;1.00;;;;;;5116448;28;20847;-44
2024/03/20 12:49:57;;;;;;;12.70;1.90;;;36.00;1.00;;;;;;5117938;28;20494;-43
2024/03/20 12:52:25;;;;;;;10.73;2.17;;;36.10;1.00;;;;;;5100330;28;20617;-42
2024/03/20 12:54:51;;;;;;;9.60;1.70;;;36.20;1.00;;;;;;5117163;28;20187;-45